Date,TemperatureHighF,TemperatureAvgF,TemperatureLowF,DewpointHighF,DewpointAvgF,DewpointLowF,HumidityHigh,HumidityAvg,HumidityLow,PressureMaxIn,PressureMinIn,WindSpeedMaxMPH,WindSpeedAvgMPH,GustSpeedMaxMPH,PrecipitationSumIn
2013-1-1,52,41,34,44,39,34,100,93,71,0.00,40.00,0,0,0,0.01
2013-1-2,55,40,33,41,36,32,99,89,57,0.00,40.00,0,0,0,0.01
2013-1-3,55,44,35,48,40,33,96,86,63,0.00,40.00,4,0,0,0.13
2013-1-4,53,46,41,48,45,41,98,94,80,0.00,40.00,3,0,0,0.03
2013-1-5,48,45,41,46,44,41,99,96,92,0.00,40.00,0,0,0,0.08
2013-1-6,49,45,42,46,44,42,98,94,85,0.00,40.00,3,0,0,0.06
2013-1-7,51,49,45,49,48,44,97,94,91,0.00,40.00,0,0,0,0.24
2013-1-8,53,50,49,49,48,46,96,92,87,0.00,40.00,1,0,0,0.03
2013-1-9,50,45,37,48,41,36,96,87,70,0.00,40.00,3,0,0,0.38
2013-1-10,46,40,35,40,36,33,98,87,60,0.00,40.00,10,1,0,0.39
2013-1-11,46,40,34,42,36,33,98,87,68,0.00,40.00,3,0,0,0.10
2013-1-12,44,36,32,36,32,29,98,87,64,0.00,40.00,3,0,0,0.00
2013-1-13,40,34,29,32,28,27,92,81,64,0.00,40.00,8,1,0,0.00
2013-1-14,45,35,29,36,30,27,96,83,56,0.00,40.00,6,1,0,0.00
2013-1-15,50,39,31,39,34,30,96,85,59,0.00,40.00,14,5,0,0.00
2013-1-16,53,39,31,43,36,30,99,88,65,0.00,40.00,4,1,0,0.00
2013-1-17,57,41,33,43,37,32,98,85,54,0.00,40.00,4,1,0,0.00
2013-1-18,43,38,32,41,37,32,100,97,92,0.00,40.00,5,2,0,0.00
2013-1-19,42,37,31,41,5,-100,101,99,96,0.00,40.00,3,1,0,0.01
2013-1-20,47,38,31,42,2,-100,101,96,78,0.00,40.00,4,1,0,0.00
2013-1-21,56,40,32,43,36,31,100,85,52,0.00,40.00,4,2,0,0.00
2013-1-22,60,45,36,43,37,33,94,77,38,0.00,40.00,6,3,0,0.00
2013-1-23,47,44,44,43,43,42,96,93,85,0.00,40.00,6,2,0,0.24
2013-1-24,54,48,37,49,46,37,100,91,84,0.00,40.00,5,4,0,0.04
2013-1-25,51,48,43,49,46,42,98,95,92,0.00,40.00,8,4,0,0.29
2013-1-26,49,44,41,44,42,40,98,93,76,0.00,40.00,4,1,0,0.21
2013-1-27,47,42,39,43,41,39,98,96,88,0.00,40.00,4,2,0,0.86
2013-1-28,48,46,44,44,43,41,94,89,82,0.00,40.00,5,2,0,0.09
2013-1-29,49,45,42,45,44,41,98,94,88,0.00,40.00,3,1,0,0.23
2013-1-30,49,44,40,47,43,39,99,96,93,0.00,40.00,4,2,0,0.01
2013-1-31,51,45,39,46,43,39,100,93,84,0.00,40.00,6,2,0,0.00
2013-2-1,57,44,36,48,41,36,100,91,72,0.00,40.00,5,2,0,0.00
2013-2-2,54,45,38,46,42,37,98,90,68,0.00,40.00,5,2,0,0.00
2013-2-3,51,48,43,45,44,42,96,89,75,0.00,40.00,2,1,0,0.00
2013-2-4,49,44,38,44,42,38,99,91,79,0.00,40.00,7,2,0,0.00
2013-2-5,53,48,45,46,44,41,96,87,78,0.00,40.00,8,5,0,0.29
2013-2-6,50,46,40,46,43,39,96,89,74,0.00,40.00,10,4,0,0.70
2013-2-7,41,39,36,39,38,36,99,96,92,0.00,40.00,6,3,0,0.64
2013-2-8,47,41,34,41,37,34,100,88,74,0.00,40.00,17,6,0,0.01
2013-2-9,48,42,36,43,38,35,98,89,66,0.00,40.00,5,1,0,0.00
2013-2-10,49,46,43,44,41,38,96,85,66,0.00,40.00,15,5,0,0.00
2013-2-11,49,46,43,45,39,35,96,78,63,0.00,40.00,8,2,0,0.03
2013-2-12,50,47,45,48,46,44,97,95,88,0.00,40.00,4,2,0,0.08
2013-2-13,51,48,45,47,46,44,97,93,83,0.00,40.00,5,2,0,0.00
2013-2-14,51,47,39,47,44,39,99,91,81,0.00,40.00,15,5,0,0.00
2013-2-15,58,48,43,48,45,42,95,89,67,0.00,40.00,8,2,0,0.00
2013-2-16,49,47,45,45,44,39,96,89,75,0.00,40.00,10,3,0,0.01
2013-2-17,47,44,39,41,39,36,94,81,67,0.00,40.00,13,5,0,0.03
2013-2-18,48,41,36,41,37,35,96,88,73,0.00,40.00,7,3,0,0.04
2013-2-19,47,42,36,41,38,35,97,88,74,0.00,40.00,9,4,0,0.42
2013-2-20,47,42,38,43,40,37,98,92,77,0.00,40.00,4,2,0,0.19
2013-2-21,47,43,39,43,40,38,97,90,77,0.00,40.00,5,2,0,0.08
2013-2-22,47,45,42,45,43,38,96,92,79,0.00,40.00,15,6,0,0.43
2013-2-23,47,43,38,40,38,36,96,83,69,0.00,40.00,7,3,0,0.10
2013-2-24,49,42,33,43,37,32,98,85,59,0.00,40.00,8,3,0,0.00
2013-2-25,50,45,37,45,39,36,96,81,61,0.00,40.00,9,2,0,0.20
2013-2-26,51,40,32,39,36,32,99,85,52,0.00,40.00,4,2,0,0.00
2013-2-27,53,47,41,49,43,38,96,86,62,0.00,40.00,9,4,0,0.24
2013-2-28,53,52,51,51,50,49,95,93,90,0.00,40.00,11,7,0,0.22
2013-3-1,56,51,47,51,49,46,97,93,82,0.00,40.00,4,2,0,0.01
2013-3-2,52,49,46,49,47,43,97,93,81,0.00,40.00,13,2,0,0.00
2013-3-3,48,45,37,43,39,36,94,80,67,0.00,40.00,20,10,0,0.00
2013-3-4,53,42,34,43,38,33,96,85,68,0.00,40.00,9,3,0,0.00
2013-3-5,44,43,41,43,41,38,97,94,84,0.00,40.00,4,2,0,1.28
2013-3-6,49,44,41,43,42,40,97,93,81,0.00,40.00,8,5,0,0.41
2013-3-7,51,43,37,42,39,36,98,87,68,0.00,40.00,6,2,0,0.01
2013-3-8,48,41,32,42,38,32,100,90,80,0.00,40.00,13,4,0,0.00
2013-3-9,50,45,38,44,42,37,96,89,73,0.00,40.00,8,3,0,0.00
2013-3-10,51,44,36,47,41,35,99,91,69,0.00,40.00,6,2,0,0.00
2013-3-11,50,48,47,48,47,46,97,96,93,0.00,40.00,9,2,0,0.01
2013-3-12,52,48,44,49,46,44,99,96,87,0.00,40.00,4,1,0,0.00
2013-3-13,49,47,46,47,46,45,97,96,95,0.00,40.00,6,1,0,0.00
2013-3-14,57,50,45,47,45,44,96,85,66,0.00,40.00,8,4,0,0.00
2013-3-15,52,50,46,49,48,45,97,92,80,0.00,40.00,5,2,0,0.00
2013-3-16,49,47,45,47,46,41,97,95,86,0.00,40.00,5,2,0,0.33
2013-3-17,47,44,38,41,37,34,93,77,61,0.00,40.00,8,3,0,0.02
2013-3-18,49,42,33,45,38,33,98,87,66,0.00,40.00,15,5,0,0.00
2013-3-19,56,49,44,49,44,38,94,84,56,0.00,40.00,11,4,0,0.34
2013-3-20,54,49,42,49,44,36,94,82,69,0.00,40.00,16,6,0,0.21
2013-3-21,48,42,38,42,38,35,96,83,66,0.00,40.00,4,2,0,0.08
2013-3-22,46,42,37,38,36,34,97,82,66,0.00,40.00,8,4,0,0.07
2013-3-23,46,40,32,38,35,32,97,81,64,0.00,40.00,11,4,0,0.00
2013-3-24,48,43,36,41,37,35,95,81,66,0.00,40.00,7,3,0,0.00
2013-3-25,50,45,38,43,41,37,95,86,73,0.00,40.00,3,1,0,0.00
2013-3-26,52,48,44,46,44,43,95,89,73,0.00,40.00,8,2,0,0.00
2013-3-27,57,51,46,50,47,44,94,88,73,0.00,40.00,6,2,0,0.05
2013-3-28,55,51,49,50,48,47,95,91,83,0.00,40.00,5,2,0,0.00
2013-3-29,55,51,49,52,48,47,96,92,82,0.00,40.00,6,2,0,0.01
2013-3-30,60,50,43,52,45,-100,98,87,67,0.00,40.00,8,3,0,0.00
2013-3-31,57,53,50,50,50,47,93,87,78,0.00,40.00,3,2,0,0.00
2013-4-1,54,51,49,50,49,47,96,91,83,0.00,40.00,3,2,0,0.00
2013-4-2,49,48,48,47,47,46,96,94,90,0.00,40.00,8,3,0,0.01
2013-4-3,51,48,45,48,46,44,98,95,88,0.00,40.00,5,2,0,0.01
2013-4-4,55,52,50,53,50,48,96,94,92,0.00,40.00,12,5,0,0.79
2013-4-5,54,52,51,50,50,49,93,91,84,0.00,40.00,13,8,0,0.41
2013-4-6,54,52,50,50,49,47,93,90,84,0.00,40.00,15,7,0,0.25
2013-4-7,53,48,43,50,44,41,95,88,73,0.00,40.00,15,5,0,0.65
2013-4-8,51,46,41,43,41,40,95,82,69,0.00,40.00,10,4,0,0.01
2013-4-9,53,46,41,46,43,40,96,88,74,0.00,40.00,7,2,0,0.00
2013-4-10,52,48,42,50,46,41,96,92,84,0.00,40.00,8,3,0,0.04
2013-4-11,50,47,41,45,42,40,96,84,73,0.00,40.00,15,7,0,0.00
2013-4-12,51,46,38,46,42,38,97,88,74,0.00,40.00,9,3,0,0.08
2013-4-13,49,46,40,44,38,35,92,74,62,0.00,40.00,8,4,0,0.04
2013-4-14,47,43,39,41,39,36,94,86,77,0.00,40.00,6,3,0,0.09
2013-4-15,48,44,40,41,39,38,96,84,70,0.00,40.00,10,4,0,0.61
2013-4-16,50,47,40,43,41,39,95,80,68,0.00,40.00,10,4,0,0.00
2013-4-17,51,48,45,44,42,40,89,80,74,0.00,40.00,11,5,0,0.00
2013-4-18,51,50,49,48,44,41,95,81,70,0.00,40.00,11,7,0,0.00
2013-4-19,52,50,48,51,48,47,96,95,94,0.00,40.00,5,2,0,0.18
2013-4-20,51,50,48,48,46,43,96,87,78,0.00,40.00,9,6,0,0.02
2013-4-21,52,50,47,46,44,41,89,80,74,0.00,40.00,12,6,0,0.00
2013-4-22,54,50,47,46,45,42,88,81,70,0.00,40.00,16,11,0,0.00
2013-4-23,54,48,42,45,42,37,90,79,54,0.00,40.00,17,6,0,0.00
2013-4-24,66,51,41,45,42,31,96,75,28,0.00,40.00,14,4,0,0.00
2013-4-25,52,48,41,48,45,40,95,90,78,0.00,40.00,8,4,0,0.00
2013-4-26,48,46,45,47,45,44,98,97,94,0.00,40.00,10,4,0,0.00
2013-4-27,49,47,44,46,45,43,98,93,85,0.00,40.00,9,4,0,0.00
2013-4-28,53,50,49,49,47,45,94,89,84,0.00,40.00,7,3,0,0.00
2013-4-29,52,50,47,49,45,38,96,84,67,0.00,40.00,17,7,0,0.07
2013-4-30,50,47,40,41,38,34,81,72,56,0.00,40.00,18,10,0,0.00
2013-5-1,51,47,39,45,40,36,89,78,68,0.00,40.00,17,8,0,0.00
2013-5-2,57,49,42,47,44,41,94,82,57,0.00,40.00,8,3,0,0.00
2013-5-3,52,49,47,47,45,44,92,87,80,0.00,40.00,10,7,0,0.00
2013-5-4,65,52,43,48,45,38,96,81,37,0.00,40.00,11,3,0,0.00
2013-5-5,79,65,55,48,40,34,77,45,23,0.00,40.00,10,4,0,0.00
2013-5-6,67,56,51,51,49,47,92,78,48,0.00,40.00,4,2,0,0.00
2013-5-7,55,52,50,49,49,48,94,87,79,0.00,40.00,5,2,0,0.00
2013-5-8,55,52,51,49,47,47,88,84,76,0.00,40.00,8,3,0,0.00
2013-5-9,52,51,50,48,48,47,92,89,85,0.00,40.00,9,5,0,0.00
2013-5-10,52,50,49,48,45,-100,94,89,84,0.00,40.00,6,2,0,0.00
2013-5-11,59,52,48,53,47,-100,94,87,73,0.00,40.00,6,2,0,0.00
2013-5-12,63,58,55,54,53,52,91,82,70,0.00,40.00,6,3,0,0.00
2013-5-13,59,55,50,54,52,48,95,90,77,0.00,40.00,6,3,0,0.01
2013-5-14,55,52,48,49,47,46,95,85,73,0.00,40.00,10,4,0,0.00
2013-5-15,62,54,47,51,47,44,94,79,55,0.00,40.00,7,3,0,0.01
2013-5-16,58,51,51,52,37,-100,95,86,72,0.00,40.00,5,2,0,0.08
2013-5-17,58,54,49,50,46,-100,95,83,69,0.00,40.00,5,2,0,0.01
2013-5-18,57,52,47,51,48,46,94,88,74,0.00,40.00,9,3,0,0.07
2013-5-19,56,54,52,51,48,45,92,81,71,0.00,40.00,21,10,0,0.01
2013-5-20,53,51,49,48,47,46,92,86,81,0.00,40.00,12,6,0,0.00
2013-5-21,51,49,43,49,44,39,94,84,62,0.00,40.00,9,3,0,0.42
2013-5-22,49,46,43,47,44,40,96,93,85,0.00,40.00,5,2,0,1.88
2013-5-23,55,49,44,49,46,43,96,89,70,0.00,40.00,8,4,0,0.37
2013-5-24,56,50,46,48,46,44,96,86,69,0.00,40.00,5,2,0,0.02
2013-5-25,59,50,43,50,46,42,98,87,64,0.00,40.00,6,3,0,0.21
2013-5-26,57,53,51,51,50,49,95,88,75,0.00,40.00,8,4,0,0.05
2013-5-27,59,54,51,54,52,49,95,91,84,0.00,40.00,13,6,0,0.50
2013-5-28,59,54,51,52,50,48,95,86,68,0.00,40.00,12,4,0,0.16
2013-5-29,58,55,50,53,50,48,93,85,75,0.00,40.00,12,4,0,0.09
2013-5-30,58,53,49,50,48,46,94,84,67,0.00,40.00,6,2,0,0.01
2013-5-31,56,52,45,50,48,44,96,86,76,0.00,40.00,11,5,0,0.00
2013-6-1,57,53,50,53,50,48,95,89,79,0.00,40.00,8,4,0,0.00
2013-6-2,57,54,52,53,51,49,95,89,83,0.00,40.00,16,9,0,0.05
2013-6-3,55,52,50,50,48,48,91,87,81,0.00,40.00,16,11,0,0.00
2013-6-4,53,51,49,51,48,47,93,90,85,0.00,40.00,14,8,0,0.00
2013-6-5,53,52,50,52,50,49,97,95,93,0.00,40.00,12,5,0,0.00
2013-6-6,54,52,50,50,49,49,98,92,84,0.00,40.00,11,6,0,0.00
2013-6-7,56,53,50,52,50,49,96,93,81,0.00,40.00,8,5,0,0.00
2013-6-8,54,51,50,51,48,47,96,89,78,0.00,40.00,14,7,0,0.00
2013-6-9,54,51,49,49,47,46,92,86,77,0.00,40.00,16,10,0,0.00
2013-6-10,53,50,48,48,46,44,90,85,75,0.00,40.00,12,7,0,0.00
2013-6-11,56,52,48,50,48,46,94,85,74,0.00,40.00,9,3,0,0.00
2013-6-12,56,51,46,50,47,45,97,89,76,0.00,40.00,8,3,0,0.00
2013-6-13,57,53,49,51,49,47,95,87,76,0.00,40.00,5,2,0,0.03
2013-6-14,56,51,45,51,48,44,97,90,80,0.00,40.00,10,3,0,0.01
2013-6-15,58,54,50,53,51,47,96,89,80,0.00,40.00,4,2,0,0.00
2013-6-16,60,54,46,52,49,45,95,86,71,0.00,40.00,6,2,0,0.00
2013-6-17,62,55,48,55,51,47,96,87,70,0.00,40.00,8,4,0,0.00
2013-6-18,61,56,50,52,51,47,92,84,68,0.00,40.00,8,5,0,0.08
2013-6-19,62,56,51,53,51,50,95,84,67,0.00,40.00,4,2,0,0.05
2013-6-20,59,55,53,53,51,50,93,87,75,0.00,40.00,5,2,0,0.01
2013-6-22,67,62,52,57,54,51,95,75,56,0.00,40.00,5,3,0,0.00
2013-6-23,65,60,55,61,57,53,94,91,84,0.00,40.00,8,3,0,0.34
2013-6-24,62,57,53,56,54,52,95,90,73,0.00,40.00,9,4,0,0.11
2013-6-25,65,59,56,57,56,54,94,88,72,0.00,40.00,9,6,0,0.32
2013-6-26,68,63,58,60,58,56,94,85,74,0.00,40.00,6,4,0,0.04
2013-6-27,67,62,57,59,58,56,96,87,76,0.00,40.00,7,3,0,0.00
2013-6-28,68,61,55,61,58,54,96,90,76,0.00,40.00,5,2,0,0.00
2013-6-29,65,61,57,60,58,55,95,90,75,0.00,40.00,7,2,0,0.00
2013-6-30,64,60,59,60,58,57,96,94,87,0.00,40.00,6,2,0,0.00
2013-7-1,62,60,58,59,58,56,96,92,88,0.00,40.00,10,6,0,0.00
2013-7-2,62,59,58,58,57,55,96,92,85,0.00,40.00,13,8,0,0.01
2013-7-3,59,57,55,56,54,52,92,89,83,0.00,40.00,14,8,0,0.00
2013-7-4,59,56,53,53,52,50,90,86,78,0.00,40.00,10,6,0,0.00
2013-7-5,58,55,52,53,51,50,92,87,76,0.00,40.00,11,6,0,0.00
2013-7-6,58,54,51,53,50,48,90,87,78,0.00,40.00,9,5,0,0.00
2013-7-7,58,55,53,53,51,51,91,87,82,0.00,40.00,14,5,0,0.00
2013-7-8,57,54,52,52,50,49,91,87,82,0.00,40.00,8,4,0,0.00
2013-7-9,54,52,50,52,50,48,97,95,91,0.00,40.00,9,5,0,0.00
2013-7-10,55,52,51,52,48,-100,97,90,81,0.00,40.00,10,6,0,0.01
2013-7-11,56,52,49,49,48,46,91,86,76,0.00,40.00,6,3,0,0.00
2013-7-12,55,52,49,51,49,47,94,89,76,0.00,40.00,6,3,0,0.00
2013-7-13,54,52,47,50,48,45,95,90,79,0.00,40.00,10,4,0,0.00
2013-7-14,53,50,48,50,48,46,96,93,88,0.00,40.00,10,6,0,0.00
2013-7-15,54,51,49,51,49,48,96,93,87,0.00,40.00,13,6,0,0.00
2013-7-16,58,53,48,54,50,47,96,90,85,0.00,40.00,5,2,0,0.00
2013-7-17,59,56,53,52,51,49,90,85,74,0.00,40.00,6,3,0,0.00
2013-7-18,56,52,48,51,49,47,95,89,81,0.00,40.00,9,2,0,0.00
2013-7-19,55,53,51,50,50,49,92,88,83,0.00,40.00,12,6,0,0.00
2013-7-20,56,53,51,50,50,49,95,89,82,0.00,40.00,14,8,0,0.00
2013-7-21,54,51,49,51,50,48,98,95,88,0.00,40.00,13,6,0,0.00
2013-7-22,54,51,49,50,50,48,97,94,86,0.00,40.00,9,5,0,0.00
2013-7-23,51,49,47,50,48,46,98,97,96,0.00,40.00,7,4,0,0.01
2013-7-24,50,49,48,49,48,47,98,97,95,0.00,40.00,11,7,0,0.00
2013-7-25,52,49,47,49,48,46,98,95,88,0.00,40.00,12,6,0,0.01
2013-7-26,54,50,47,50,48,47,98,93,84,0.00,40.00,15,7,0,0.00
2013-7-27,54,51,49,50,49,48,97,93,86,0.00,40.00,11,6,0,0.00
2013-7-28,55,52,50,50,49,48,94,90,83,0.00,40.00,8,4,0,0.00
2013-7-29,56,52,48,52,50,47,98,93,87,0.00,40.00,7,3,0,0.00
2013-7-30,57,56,53,54,52,51,94,90,86,0.00,40.00,7,3,0,0.00
2013-7-31,58,56,55,55,52,-100,94,92,89,0.00,40.00,3,1,0,0.00
2013-8-1,63,58,55,56,49,-100,95,88,74,0.00,40.00,4,1,0,0.00
2013-8-2,59,56,53,55,42,-100,97,92,84,0.00,40.00,8,3,0,0.00
2013-8-3,57,53,50,53,52,50,98,95,87,0.00,40.00,6,3,0,0.00
2013-8-4,54,53,51,53,52,50,97,96,93,0.00,40.00,10,5,0,0.01
2013-8-5,53,52,51,52,51,50,97,96,92,0.00,40.00,11,6,0,0.01
2013-8-6,54,51,49,52,50,48,98,95,91,0.00,40.00,10,4,0,0.00
2013-8-7,57,54,52,54,52,51,96,94,87,0.00,40.00,3,1,0,0.01
2013-8-8,56,54,53,54,53,52,97,95,90,0.00,40.00,6,2,0,0.02
2013-8-9,56,54,52,55,53,51,97,96,95,0.00,40.00,5,3,0,0.07
2013-8-10,60,56,53,56,54,52,97,94,85,0.00,40.00,6,2,0,0.01
2013-8-11,60,57,54,55,54,52,94,90,82,0.00,40.00,7,2,0,0.00
2013-8-12,59,54,51,55,53,49,96,94,85,0.00,40.00,6,2,0,0.00
2013-8-13,59,53,48,54,51,47,97,92,82,0.00,40.00,5,2,0,0.00
2013-8-14,72,61,52,62,56,50,95,82,57,0.00,40.00,6,3,0,0.00
2013-8-15,70,59,58,63,48,-100,95,85,78,0.00,40.00,4,1,0,0.00
2013-8-16,65,57,55,58,54,-100,96,90,77,0.00,40.00,6,2,0,0.00
2013-8-17,64,58,55,59,55,-100,96,91,82,0.00,40.00,7,3,0,0.00
2013-8-18,61,57,55,57,56,54,97,95,85,0.00,40.00,5,3,0,0.00
2013-8-19,60,55,54,57,48,-100,97,94,90,0.00,40.00,8,4,0,0.00
2013-8-20,57,54,52,54,50,-100,94,90,82,0.00,40.00,15,8,0,0.00
2013-8-21,56,52,49,53,50,48,95,92,86,0.00,40.00,11,2,0,0.00
2013-8-22,60,56,54,56,54,52,94,92,85,0.00,40.00,5,1,0,0.00
2013-8-23,64,58,55,57,55,53,96,88,73,0.00,40.00,3,1,0,0.00
2013-8-24,57,55,52,55,52,-100,96,92,89,0.00,40.00,6,2,0,0.00
2013-8-25,60,55,51,57,54,50,97,96,88,0.00,40.00,3,1,0,0.11
2013-8-26,72,60,50,59,52,48,98,78,44,0.00,40.00,10,5,0,0.01
2013-8-27,73,65,61,59,58,57,86,77,57,0.00,40.00,4,2,0,0.00
2013-8-28,70,66,62,60,59,59,90,78,70,0.00,40.00,6,3,0,0.00
2013-8-29,72,64,61,64,61,59,95,90,72,0.00,40.00,10,5,0,0.25
2013-8-30,63,61,57,62,60,56,96,95,90,0.00,40.00,5,2,0,0.01
2013-8-31,64,58,55,60,54,-100,97,91,77,0.00,40.00,5,2,0,0.00
2013-9-1,72,63,54,62,56,53,96,81,53,0.00,40.00,9,4,0,0.00
2013-9-2,71,65,58,61,59,53,94,81,64,0.00,40.00,7,4,0,0.03
2013-9-3,70,63,56,59,56,53,93,80,60,0.00,40.00,7,3,0,0.00
2013-9-4,69,62,58,60,57,56,94,85,67,0.00,40.00,3,2,0,0.00
2013-9-5,65,60,58,60,58,57,96,94,84,0.00,40.00,1,1,0,0.17
2013-9-6,65,62,59,60,59,58,96,90,81,0.00,40.00,8,4,0,0.01
2013-9-7,63,59,54,59,55,-100,96,90,84,0.00,40.00,11,5,0,0.00
2013-9-8,60,58,56,58,57,56,97,96,93,0.00,40.00,15,8,0,0.00
2013-9-9,56,55,54,56,54,53,98,97,95,0.00,40.00,14,8,0,0.00
2013-9-10,57,54,52,56,52,51,97,96,94,0.00,40.00,9,4,0,0.00
2013-9-11,64,60,55,58,56,54,96,89,78,0.00,40.00,7,3,0,0.00
2013-9-12,62,60,56,58,57,55,96,90,83,0.00,40.00,5,2,0,0.00
2013-9-13,61,59,58,57,56,56,96,90,85,0.00,40.00,8,3,0,0.01
2013-9-14,59,57,56,57,55,-100,97,94,88,0.00,40.00,6,2,0,0.02
2013-9-15,61,59,57,57,56,55,96,90,84,0.00,40.00,6,2,0,0.01
2013-9-16,64,60,57,59,56,55,96,88,76,0.00,40.00,7,2,0,0.00
2013-9-17,65,59,54,57,56,53,96,88,68,0.00,40.00,6,2,0,0.09
2013-9-18,57,55,53,54,53,52,96,94,89,0.00,40.00,4,1,0,0.02
2013-9-19,68,57,48,56,51,47,97,82,56,0.00,40.00,4,2,0,0.00
2013-9-20,61,56,51,59,53,48,96,91,80,0.00,40.00,5,2,0,0.36
2013-9-21,63,57,54,56,53,-100,96,89,75,0.00,40.00,5,3,0,0.67
2013-9-22,61,57,54,57,54,51,95,89,72,0.00,40.00,14,6,0,0.29
2013-9-23,65,60,57,56,55,54,94,86,71,0.00,40.00,6,3,0,0.00
2013-9-24,61,57,50,55,53,49,96,87,72,0.00,40.00,5,2,0,0.23
2013-9-25,58,52,47,50,48,46,96,88,66,0.00,40.00,5,2,0,0.45
2013-9-26,60,52,44,54,48,43,97,88,72,0.00,40.00,5,2,0,0.00
2013-9-27,61,52,46,57,50,45,97,91,67,0.00,40.00,7,4,0,0.13
2013-9-28,62,58,53,58,55,-100,95,90,83,0.00,40.00,18,10,0,1.63
2013-9-29,61,57,55,59,55,52,94,91,88,0.00,40.00,15,9,0,1.79
2013-9-30,61,57,52,55,50,48,92,80,68,0.00,40.00,6,4,0,0.01
2013-10-1,58,52,47,49,47,45,96,84,67,0.00,40.00,4,1,0,0.00
2013-10-2,57,48,40,53,46,40,99,93,66,0.00,40.00,6,2,0,0.83
2013-10-3,57,50,43,52,47,43,99,89,69,0.00,40.00,13,4,0,0.01
2013-10-4,60,50,42,53,46,41,98,88,64,0.00,40.00,10,3,0,0.00
2013-10-5,65,50,44,50,46,44,98,85,49,0.00,40.00,3,2,0,0.00
2013-10-6,69,56,47,54,41,-100,93,76,29,0.00,40.00,8,4,0,0.00
2013-10-7,59,56,51,55,51,48,96,85,69,0.00,40.00,7,2,0,0.18
2013-10-8,55,51,47,53,49,46,96,92,84,0.00,40.00,5,2,0,0.18
2013-10-9,57,50,41,50,46,41,99,88,74,0.00,40.00,13,5,0,0.02
2013-10-10,58,52,46,52,48,44,96,85,64,0.00,40.00,15,4,0,0.00
2013-10-11,56,52,47,48,46,44,94,81,64,0.00,40.00,9,3,0,0.00
2013-10-12,55,50,46,51,46,-100,95,90,81,0.00,40.00,8,2,0,0.07
2013-10-13,55,49,42,50,46,41,98,90,77,0.00,40.00,13,4,0,0.00
2013-10-14,57,50,44,51,47,43,98,89,73,0.00,40.00,11,4,0,0.00
2013-10-15,58,49,42,49,46,41,98,88,64,0.00,40.00,12,3,0,0.00
2013-10-16,56,51,43,52,47,41,95,87,74,0.00,40.00,6,3,0,0.00
2013-10-17,54,51,48,51,50,47,98,94,89,0.00,40.00,12,4,0,0.00
2013-10-18,58,48,43,50,46,42,98,93,72,0.00,40.00,3,2,0,0.00
2013-10-19,56,49,42,52,46,-100,98,93,85,0.00,40.00,6,3,0,0.00
2013-10-20,52,49,46,51,48,46,99,98,95,0.00,40.00,11,6,0,0.00
2013-10-21,51,48,45,50,47,45,99,99,98,0.00,40.00,7,3,0,0.01
2013-10-22,50,50,49,50,49,48,99,98,98,0.00,40.00,2,1,0,0.02
2013-10-23,50,49,47,49,48,47,99,97,94,0.00,40.00,5,2,0,0.02
2013-10-24,51,50,49,50,49,48,98,97,96,0.00,40.00,6,3,0,0.01
2013-10-25,52,51,50,50,50,49,97,95,92,0.00,40.00,6,2,0,0.00
2013-10-26,52,49,44,50,46,-100,99,92,85,0.00,40.00,11,4,0,0.00
2013-10-27,53,50,46,51,47,45,97,89,82,0.00,40.00,7,3,0,0.04
2013-10-28,53,45,42,46,42,-100,99,92,75,0.00,40.00,9,2,0,0.00
2013-10-29,52,43,36,42,40,36,98,89,68,0.00,40.00,6,2,0,0.00
2013-10-30,55,45,36,45,40,36,99,87,62,0.00,40.00,4,1,0,0.00
2013-10-31,58,51,46,52,47,43,97,87,69,0.00,40.00,3,2,0,0.02
2013-11-1,58,50,44,52,48,44,99,95,80,0.00,40.00,4,2,0,0.01
2013-11-2,56,51,46,50,46,-100,94,85,70,0.00,40.00,8,3,0,0.29
2013-11-3,54,47,42,47,44,41,98,91,73,0.00,40.00,2,1,0,0.10
2013-11-4,50,46,41,49,45,40,99,96,90,0.00,40.00,6,3,0,0.16
2013-11-5,56,53,50,53,51,49,96,93,89,0.00,40.00,9,6,0,0.18
2013-11-6,55,54,53,54,53,52,96,95,94,0.00,40.00,3,1,0,0.02
2013-11-7,54,53,51,53,51,49,96,93,92,0.00,40.00,8,4,0,0.03
2013-11-8,54,49,43,49,46,42,98,89,79,0.00,40.00,6,3,0,0.00
2013-11-9,54,48,41,47,43,-100,99,88,71,0.00,40.00,2,1,0,0.00
2013-11-10,54,47,44,49,45,43,97,94,82,0.00,40.00,6,2,0,0.00
2013-11-11,61,51,45,53,49,44,98,91,75,0.00,40.00,6,2,0,0.00
2013-11-12,59,54,51,55,52,49,97,92,80,0.00,40.00,5,2,0,0.13
2013-11-13,53,49,45,52,48,45,99,97,90,0.00,40.00,14,4,0,0.01
2013-11-14,50,47,42,47,45,41,98,93,80,0.00,40.00,8,1,0,0.07
2013-11-15,50,46,41,47,44,40,100,94,84,0.00,40.00,6,2,0,0.08
2013-11-16,53,49,46,50,46,-100,97,93,82,0.00,40.00,6,2,0,0.13
2013-11-17,56,49,46,50,46,44,97,90,73,0.00,40.00,5,3,0,0.06
2013-11-18,55,50,46,52,47,43,93,89,83,0.00,40.00,13,7,0,0.74
2013-11-19,55,52,46,53,48,34,96,87,63,0.00,40.00,19,11,0,0.52
2013-11-20,47,43,40,37,34,30,80,68,61,30.26,30.08,17,12,22,0.00
2013-11-21,49,40,31,32,27,22,86,62,42,30.44,30.26,13,5,18,0.00
2013-11-22,57,44,32,31,27,24,80,55,29,30.44,30.22,3,2,8,0.00
2013-11-23,70,47,36,35,30,-100,86,58,23,30.22,30.02,4,2,10,0.00
2013-11-24,61,44,35,38,35,29,94,74,33,30.23,30.09,4,2,13,0.00
2013-11-25,57,43,35,45,38,34,98,86,54,30.31,30.23,5,2,8,0.00
2013-11-26,56,44,37,46,40,36,98,86,63,30.25,30.07,4,2,9,0.00
2013-11-27,62,46,38,45,41,37,96,84,49,29.97,29.88,4,1,9,0.00
2013-11-28,57,44,38,46,41,37,98,90,62,30.16,29.94,3,1,7,0.00
2013-11-29,49,43,35,47,41,34,99,93,79,30.34,30.16,8,3,12,0.00
2013-11-30,51,46,42,47,43,-100,98,93,83,30.40,30.34,3,1,9,0.01
2013-12-1,53,52,49,52,51,46,96,95,91,30.37,30.18,10,5,20,0.17
2013-12-2,53,47,38,51,44,37,97,89,76,30.18,30.04,9,4,18,0.77
2013-12-3,48,38,35,42,36,29,99,94,71,30.19,30.09,15,2,20,0.12
2013-12-4,40,34,28,29,25,20,96,71,45,30.30,30.19,15,3,20,0.00
2013-12-5,42,32,26,28,26,22,94,79,56,30.26,30.11,4,1,8,0.00
2013-12-6,43,35,33,39,32,28,98,88,79,30.11,29.84,11,6,17,0.14
2013-12-7,33,28,25,24,18,-100,82,70,53,30.36,30.13,8,3,13,0.00
2013-12-8,38,30,23,24,19,12,87,66,34,30.54,30.35,14,3,19,0.00
2013-12-9,42,32,27,28,22,15,88,67,52,30.56,30.49,9,2,15,0.00
2013-12-10,44,34,29,36,30,27,96,85,64,30.50,30.33,6,1,12,0.00
2013-12-11,52,36,30,40,33,29,98,87,55,30.33,30.18,6,2,11,0.00
2013-12-12,48,39,31,44,37,31,98,93,79,30.23,30.13,9,3,18,0.30
2013-12-13,53,45,41,50,44,40,99,96,87,30.40,30.23,4,1,9,0.01
2013-12-14,43,40,37,43,38,-100,100,98,98,30.46,30.38,3,1,8,0.01
2013-12-15,54,42,37,47,40,-100,101,96,77,30.47,30.41,4,2,10,0.00
2013-12-16,53,43,36,46,41,36,100,93,78,30.42,30.15,5,1,9,0.01
2013-12-17,46,41,34,43,39,34,99,94,82,30.23,30.15,7,3,15,0.00
2013-12-18,47,43,40,45,41,36,98,93,75,30.18,30.07,19,5,29,0.00
2013-12-19,44,38,33,36,33,31,96,81,67,30.29,30.15,15,4,23,0.00
2013-12-20,50,41,33,49,38,31,96,88,68,30.25,30.04,5,3,13,0.28
2013-12-21,49,47,45,49,45,-100,98,96,95,30.29,30.09,4,1,8,0.09
2013-12-22,52,46,43,49,46,43,99,97,88,30.39,30.29,2,1,6,0.00
2013-12-23,50,47,43,49,46,43,99,98,97,30.51,30.37,3,1,7,0.08
2013-12-24,47,43,37,44,41,37,100,94,87,30.54,30.39,14,5,19,0.01
2013-12-25,49,40,32,43,38,32,100,94,80,30.40,30.31,4,2,12,0.00
2013-12-26,53,39,33,44,38,33,100,95,72,30.31,30.18,3,1,7,0.01
2013-12-27,51,42,37,46,41,37,99,95,82,30.36,30.16,9,2,12,0.00
2013-12-28,46,42,36,45,38,-100,100,90,82,30.45,30.36,15,4,21,0.00
2013-12-29,49,41,35,41,37,34,97,86,73,30.38,30.19,10,2,14,0.00
2013-12-30,50,42,37,43,38,35,96,87,71,30.23,30.16,5,2,10,0.00
2013-12-31,47,42,39,45,41,38,99,95,84,30.33,30.23,5,1,7,0.00
2014-1-1,51,42,35,45,40,35,100,93,78,30.30,30.20,3,2,8,0.01
2014-1-2,51,44,39,45,41,38,98,90,74,30.21,30.13,3,1,8,0.00